YCEM weather

Coldstream Airport
Coldstream, Victoria, Australia

Public forecast

Using degrees Celsius for public forecast. Weather courtesy of forecast.io.

METAR (pilot weather report)

Closest report is Melbourne Essendon Airport, 24.0 nm (44.5 km) W. Retrieved 2019/04/20 09:00 UTC (52 minutes ago):

YMEN 200900Z AUTO 36007KT 9999 // NCD 24/06 Q1018

TAF (pilot weather forecast)

Closest forecast is Melbourne International Airport, 27.1 nm (50.1 km) W. Retrieved 2019/04/20 06:00 UTC (4 hours ago):

TAF YMML 200504Z 2006/2112 36014KT CAVOK BECMG 2018/2020 01020G30KT CAVOK FM210400 36015KT 9999 -SHRA SCT080 FM210800 34010KT 9999 -SHRA SCT050 BKN100